Lake George, MI (48633)

11:33 AM EST on February 21, 2017 (GMT -0500)
Bertha Lake | | Change Station

Elev 1158 ft 43.94 °N, 84.89 °W | Updated 17 seconds ago

Overcast
Overcast
44.2 °F
Feels Like 44 °F
N
0.0
Wind Variable Wind from NNE

Today
High -- | Low -- °F
--% Chance of Precip.
Yesterday
High -- | Low -- °F
Precip. -- in
Pressure 29.90 in
Visibility 3.0 miles
Clouds Mostly Cloudy 900 ft
Overcast 2400 ft
Windchill 44 °F
Dew Point 43 °F
Humidity 98%
Rainfall 0.09 in
Snow Depth Not available.
7:29 AM 6:18 PM
Waning Crescent, 24% visible
METAR KMOP 211615Z AUTO 28003KT 3SM RA BKN009 OVC024 10/09 A2990 RMK AO2 P0001 T01000091
Pressure 29.90 in
Visibility 3.0 miles
Clouds Mostly Cloudy 900 ft
Overcast 2400 ft
Windchill 44 °F
Dew Point 43 °F
Humidity 98%
Rainfall 0.09 in
Snow Depth Not available.
7:29 AM 6:18 PM
Waning Crescent, 24% visible
METAR KMOP 211615Z AUTO 28003KT 3SM RA BKN009 OVC024 10/09 A2990 RMK AO2 P0001 T01000091

Get Your Daily Forecast Email!

Thanks for signing up!

Be on the lookout for a verification email in your inbox.

You'll start receiving the daily forecast at 8 AM.

×

10-Day Weather Forecast

Almanac

Astronomy

Feb. 21, 2017 Rise Set
Actual Time
Civil Twilight
Nautical Twilight
Astronomical Twilight
Moon
Length of Visible Light
Length of Day
Tomorrow will be .
, % of the Moon is Illuminated

Today's Extremes

State Highs State Lows

Community

WunderPhotos

Upload Photos

1,962,540 photos uploaded!

WunderBlog® & News

Nearby

Air Quality

  Air Quality AQ Index Pollutant
Not available.

Snow Depth

Station Depth Elevation

Earthquake Activity

City Distance Mag. Time & Date
Minimum magnitude displayed is 2.5.

Coastal Water Temperatures

Place Temperature

Stations

Nearby Weather Stations

Station Location Temp. Windchill Dew Point Humidity Wind Precip. Elev Updated Type
                   

Watches & Warnings

There are currently no watches in effect.